createdAt,value
2018-11-29T00:00:18.821Z,11.4
2018-11-29T00:02:18.533Z,12.8
2018-11-29T00:04:19.218Z,12.1
2018-11-29T00:06:19.194Z,11
2018-11-29T00:08:18.900Z,11.3
2018-11-29T00:10:19.067Z,11.9
2018-11-29T00:12:18.759Z,11.6
2018-11-29T00:14:18.468Z,10.4
2018-11-29T00:16:18.485Z,11.7
2018-11-29T00:18:19.278Z,11.7
2018-11-29T00:20:19.010Z,13.5
2018-11-29T00:22:18.715Z,11.5
2018-11-29T00:24:19.423Z,12.6
2018-11-29T00:26:19.364Z,9.3
2018-11-29T00:28:19.062Z,10.7
2018-11-29T00:30:18.793Z,11
2018-11-29T00:32:18.495Z,12.1
2018-11-29T00:34:19.207Z,11.5
2018-11-29T00:36:19.395Z,12.1
2018-11-29T00:38:19.097Z,12.1
2018-11-29T00:40:19.285Z,11.4
2018-11-29T00:42:18.986Z,11.3
2018-11-29T00:44:18.700Z,12.2
2018-11-29T00:46:19.194Z,9.9
2018-11-29T00:48:18.890Z,14.2
2018-11-29T00:50:18.619Z,12.3
2018-11-29T00:52:19.326Z,12.7
2018-11-29T00:54:19.020Z,13.3
2018-11-29T00:56:18.974Z,13
2018-11-29T00:58:18.676Z,13.5
2018-11-29T01:00:19.405Z,11.4
2018-11-29T01:02:19.099Z,11.4
2018-11-29T01:04:18.793Z,11.5
2018-11-29T01:06:18.879Z,13.5
2018-11-29T01:08:18.589Z,10.9
2018-11-29T01:10:18.756Z,13
2018-11-29T01:12:19.326Z,12.1
2018-11-29T01:14:19.044Z,12.3
2018-11-29T01:16:18.491Z,13.7
2018-11-29T01:18:19.290Z,13
2018-11-29T01:20:19.023Z,13.6
2018-11-29T01:22:18.742Z,15.3
2018-11-29T01:24:18.425Z,12.9
2018-11-29T01:26:18.761Z,13.1
2018-11-29T01:28:18.437Z,13.8
2018-11-29T01:30:19.122Z,12.8
2018-11-29T01:32:18.797Z,14
2018-11-29T01:34:18.475Z,11.8
2018-11-29T01:36:19.293Z,13.3
2018-11-29T01:38:18.972Z,15
2018-11-29T01:40:19.095Z,12.8
2018-11-29T01:42:18.766Z,15.1
2018-11-29T01:44:18.442Z,12.8
2018-11-29T01:46:18.954Z,13.1
2018-11-29T01:48:18.632Z,12.5
2018-11-29T01:50:19.346Z,14
2018-11-29T01:52:19.028Z,12.7
2018-11-29T01:54:18.704Z,13.1
2018-11-29T01:56:18.566Z,12.9
2018-11-29T01:58:19.244Z,12.8
2018-11-29T02:00:18.964Z,14.7
2018-11-29T02:02:19.357Z,12.8
2018-11-29T02:04:19.032Z,14
2018-11-29T02:06:19.417Z,13.2
2018-11-29T02:08:19.109Z,13
2018-11-29T02:10:19.268Z,13.5
2018-11-29T02:12:18.945Z,12.9
2018-11-29T02:14:18.611Z,14.5
2018-11-29T02:16:18.931Z,13.9
2018-11-29T02:18:18.674Z,12.7
2018-11-29T02:20:19.390Z,14.9
2018-11-29T02:22:19.072Z,13.7
2018-11-29T02:24:18.769Z,13.4
2018-11-29T02:26:19.139Z,13.4
2018-11-29T02:28:18.813Z,14.2
2018-11-29T02:30:18.508Z,14.8
2018-11-29T02:32:19.176Z,13.4
2018-11-29T02:34:18.856Z,14.2
2018-11-29T02:36:19.238Z,15.4
2018-11-29T02:38:18.924Z,13.6
2018-11-29T02:40:19.061Z,14.3
2018-11-29T02:42:18.734Z,13.9
2018-11-29T02:44:19.408Z,10.9
2018-11-29T02:46:18.748Z,12.2
2018-11-29T02:48:19.415Z,12.4
2018-11-29T02:50:19.118Z,13.5
2018-11-29T02:52:18.805Z,14.9
2018-11-29T02:54:18.493Z,12.8
2018-11-29T02:56:19.068Z,13.1
2018-11-29T02:58:18.735Z,13.2
2018-11-29T03:00:19.445Z,14.4
2018-11-29T03:02:19.143Z,11.9
2018-11-29T03:04:18.832Z,13.2
2018-11-29T03:06:19.180Z,13.1
2018-11-29T03:08:18.858Z,14.4
2018-11-29T03:10:18.992Z,15.2
2018-11-29T03:12:18.662Z,13.1
2018-11-29T03:14:19.348Z,13.1
2018-11-29T03:16:18.770Z,12
2018-11-29T03:18:18.525Z,14
2018-11-29T03:20:19.255Z,12.8
2018-11-29T03:22:18.923Z,12.7
2018-11-29T03:24:18.594Z,11.5
2018-11-29T03:26:18.459Z,14.9
2018-11-29T03:28:19.139Z,12.3
2018-11-29T03:30:18.858Z,13.8
2018-11-29T03:32:18.557Z,14.4
2018-11-29T03:34:19.239Z,12.4
2018-11-29T03:36:19.262Z,14.4
2018-11-29T03:38:18.958Z,15
2018-11-29T03:40:19.111Z,13.8
2018-11-29T03:42:18.786Z,13.1
2018-11-29T03:44:18.460Z,14.6
2018-11-29T03:46:18.779Z,14.4
2018-11-29T03:48:18.458Z,14.5
2018-11-29T03:50:19.159Z,13.5
2018-11-29T03:52:18.831Z,13.9
2018-11-29T03:54:18.498Z,13.6
2018-11-29T03:56:18.830Z,14.8
2018-11-29T03:58:18.500Z,13.8
2018-11-29T04:00:19.207Z,13.1
2018-11-29T04:02:18.889Z,14.3
2018-11-29T04:04:18.570Z,13.3
2018-11-29T04:06:19.036Z,14.6
2018-11-29T04:08:18.717Z,13.1
2018-11-29T04:10:18.847Z,14.3
2018-11-29T04:12:18.516Z,14.5
2018-11-29T04:14:19.206Z,14.3
2018-11-29T04:16:19.167Z,13.9
2018-11-29T04:18:18.911Z,13.4
2018-11-29T04:20:18.624Z,14.1
2018-11-29T04:22:19.306Z,14.2
2018-11-29T04:24:18.968Z,13.9
2018-11-29T04:26:18.820Z,14.5
2018-11-29T04:28:18.502Z,13.6
2018-11-29T04:30:19.200Z,14.3
2018-11-29T04:32:18.870Z,12.8
2018-11-29T04:34:18.545Z,13.8
2018-11-29T04:36:18.947Z,13.6
2018-11-29T04:38:18.610Z,13.5
2018-11-29T04:40:18.714Z,13.4
2018-11-29T04:42:19.379Z,13.6
2018-11-29T04:44:19.061Z,14.4
2018-11-29T04:46:18.442Z,14.3
2018-11-29T04:48:19.125Z,14.3
2018-11-29T04:50:18.847Z,13
2018-11-29T04:52:18.527Z,12.9
2018-11-29T04:54:19.191Z,13.1
2018-11-29T04:56:18.599Z,13.1
2018-11-29T04:58:19.272Z,11.8
2018-11-29T05:00:19.002Z,13.6
2018-11-29T05:02:18.683Z,13.2
2018-11-29T05:04:19.356Z,13.9
2018-11-29T05:06:18.764Z,13.8
2018-11-29T05:08:18.430Z,13.8
2018-11-29T05:10:18.548Z,13.1
2018-11-29T05:12:19.230Z,12.7
2018-11-29T05:14:18.895Z,14.5
2018-11-29T05:16:19.219Z,13.5
2018-11-29T05:18:18.973Z,14.2
2018-11-29T05:20:18.665Z,13.9
2018-11-29T05:22:19.348Z,12.7
2018-11-29T05:24:19.020Z,13
2018-11-29T05:26:19.394Z,13.6
2018-11-29T05:28:19.071Z,12
2018-11-29T05:30:18.808Z,11.4
2018-11-29T05:32:18.492Z,12
2018-11-29T05:34:19.172Z,13.4
2018-11-29T05:36:18.571Z,13.9
2018-11-29T05:38:19.263Z,11.2
2018-11-29T05:40:19.391Z,11.8
2018-11-29T05:42:19.059Z,13.1
2018-11-29T05:44:18.731Z,11.5
2018-11-29T05:46:18.589Z,12.7
2018-11-29T05:48:19.261Z,10.9
2018-11-29T05:50:18.968Z,11.1
2018-11-29T05:52:18.648Z,15.2
2018-11-29T05:54:19.331Z,12.4
2018-11-29T05:56:19.183Z,12.8
2018-11-29T05:58:18.871Z,11.8
2018-11-29T06:00:18.585Z,11.1
2018-11-29T06:02:18.569Z,11.1
2018-11-29T06:04:19.247Z,12.9
2018-11-29T06:06:18.625Z,12.7
2018-11-29T06:08:19.300Z,12.6
2018-11-29T06:10:19.430Z,12.2
2018-11-29T06:12:19.104Z,12.1
2018-11-29T06:14:18.776Z,11
2018-11-29T06:16:18.617Z,13.6
2018-11-29T06:18:19.364Z,13
2018-11-29T06:20:19.083Z,13.5
2018-11-29T06:22:18.752Z,12.9
2018-11-29T06:24:19.429Z,13.6
2018-11-29T06:26:18.526Z,13.2
2018-11-29T06:28:19.196Z,11.6
2018-11-29T06:30:18.902Z,14.1
2018-11-29T06:32:18.575Z,12.5
2018-11-29T06:34:19.246Z,11
2018-11-29T06:36:18.579Z,13.8
2018-11-29T06:38:19.252Z,13.8
2018-11-29T06:40:19.390Z,13.1
2018-11-29T06:42:18.858Z,10.7
2018-11-29T06:44:18.541Z,11.4
2018-11-29T06:46:19.389Z,13.1
2018-11-29T06:48:19.052Z,11.2
2018-11-29T06:50:18.756Z,11.9
2018-11-29T06:52:18.425Z,13.5
2018-11-29T06:54:19.111Z,11.8
2018-11-29T06:56:18.466Z,11.1
2018-11-29T06:58:19.127Z,12.5
2018-11-29T07:00:18.822Z,11.2
2018-11-29T07:02:18.496Z,10.5
2018-11-29T07:04:19.174Z,12.7
2018-11-29T07:06:19.094Z,11.2
2018-11-29T07:08:18.755Z,13.1
2018-11-29T07:10:18.892Z,12.3
2018-11-29T07:12:18.577Z,11.9
2018-11-29T07:14:19.246Z,11.9
2018-11-29T07:16:18.557Z,12.8
2018-11-29T07:18:19.293Z,11.3
2018-11-29T07:20:18.994Z,12.1
2018-11-29T07:22:18.676Z,11.5
2018-11-29T07:24:19.353Z,12.4
2018-11-29T07:26:18.690Z,9.8
2018-11-29T07:28:19.372Z,9.7
2018-11-29T07:30:19.085Z,11.2
2018-11-29T07:32:18.768Z,12
2018-11-29T07:34:18.442Z,11.2
2018-11-29T07:36:18.818Z,11.6
2018-11-29T07:38:18.493Z,12.2
2018-11-29T07:40:18.626Z,11.6
2018-11-29T07:42:19.302Z,10.1
2018-11-29T07:44:19.002Z,11.2
2018-11-29T07:46:19.393Z,9.2
2018-11-29T07:48:19.066Z,11.2
2018-11-29T07:50:18.766Z,11.3
2018-11-29T07:52:18.458Z,11.4
2018-11-29T07:54:19.141Z,9.8
2018-11-29T07:56:18.526Z,11.6
2018-11-29T07:58:19.197Z,11.7
2018-11-29T08:00:18.902Z,10.5
2018-11-29T08:02:18.580Z,13.8
2018-11-29T08:04:19.254Z,11.2
2018-11-29T08:06:19.122Z,10.8
2018-11-29T08:08:18.804Z,9.3
2018-11-29T08:10:18.943Z,10.7
2018-11-29T08:12:18.619Z,11.3
2018-11-29T08:14:19.299Z,10.9
2018-11-29T08:16:18.685Z,10.5
2018-11-29T08:18:19.420Z,10.6
2018-11-29T08:20:19.116Z,12.1
2018-11-29T08:22:19.715Z,10.5
2018-11-29T08:24:18.447Z,11.2
2018-11-29T08:26:18.799Z,10.8
2018-11-29T08:28:18.472Z,10.1
2018-11-29T08:30:19.187Z,11.8
2018-11-29T08:32:18.880Z,10.2
2018-11-29T08:34:18.556Z,10.4
2018-11-29T08:36:19.408Z,10.1
2018-11-29T08:38:19.082Z,10
2018-11-29T08:40:19.220Z,10.4
2018-11-29T08:42:18.904Z,11.7
2018-11-29T08:44:18.582Z,11.1
2018-11-29T08:46:18.911Z,10.3
2018-11-29T08:48:18.573Z,10.3
2018-11-29T08:50:19.291Z,10.9
2018-11-29T08:52:18.971Z,12.4
2018-11-29T08:54:18.641Z,11.8
2018-11-29T08:56:19.369Z,9.7
2018-11-29T08:58:19.047Z,10.4
2018-11-29T09:00:18.743Z,11
2018-11-29T09:02:19.429Z,10
2018-11-29T09:04:19.102Z,9.3
2018-11-29T09:06:18.456Z,10.6
2018-11-29T09:08:19.156Z,11.3
2018-11-29T09:10:19.296Z,10
2018-11-29T09:12:18.976Z,8.9
2018-11-29T09:14:18.653Z,11
2018-11-29T09:16:19.064Z,11.2
2018-11-29T09:18:18.821Z,9
2018-11-29T09:20:18.528Z,11.5
2018-11-29T09:22:19.223Z,9.4
2018-11-29T09:24:18.901Z,9.7
2018-11-29T09:26:19.218Z,10.6
2018-11-29T09:28:18.900Z,9.5
2018-11-29T09:30:18.679Z,9.9
2018-11-29T09:32:19.360Z,10.6
2018-11-29T09:34:19.042Z,10.4
2018-11-29T09:36:19.377Z,9.2
2018-11-29T09:38:19.061Z,10
2018-11-29T09:40:19.193Z,9.4
2018-11-29T09:42:18.873Z,12
2018-11-29T09:44:18.632Z,9
2018-11-29T09:46:18.660Z,11.3
2018-11-29T09:48:19.356Z,11.7
2018-11-29T09:50:19.092Z,9.8
2018-11-29T09:52:18.786Z,9.4
2018-11-29T09:54:18.471Z,9.2
2018-11-29T09:56:19.321Z,9
2018-11-29T09:58:18.994Z,10.2
2018-11-29T10:00:18.688Z,9.2
2018-11-29T10:02:19.361Z,10
2018-11-29T10:04:19.041Z,10.4
2018-11-29T10:06:18.927Z,10.1
2018-11-29T10:08:18.620Z,9.4
2018-11-29T10:10:18.752Z,9.4
2018-11-29T10:12:19.423Z,10.5
2018-11-29T10:14:19.087Z,8.5
2018-11-29T10:16:19.412Z,8.6
2018-11-29T10:18:19.160Z,11.5
2018-11-29T10:20:18.878Z,8.8
2018-11-29T10:22:18.576Z,10.1
2018-11-29T10:24:19.259Z,9
2018-11-29T10:26:19.190Z,8.8
2018-11-29T10:28:18.865Z,10.5
2018-11-29T10:30:18.567Z,9.7
2018-11-29T10:32:19.256Z,9.2
2018-11-29T10:34:18.952Z,9.2
2018-11-29T10:36:18.829Z,9.4
2018-11-29T10:38:18.518Z,9.7
2018-11-29T10:40:18.650Z,12.1
2018-11-29T10:42:19.326Z,9.6
2018-11-29T10:44:19.004Z,9.9
2018-11-29T10:46:19.335Z,10.9
2018-11-29T10:48:19.017Z,8.3
2018-11-29T10:50:18.717Z,10.5
2018-11-29T10:52:19.394Z,8.7
2018-11-29T10:54:19.091Z,11
2018-11-29T10:56:18.486Z,8.9
2018-11-29T10:58:19.230Z,9.4
2018-11-29T11:00:18.929Z,9.6
2018-11-29T11:02:18.611Z,10.1
2018-11-29T11:04:19.304Z,9.1
2018-11-29T11:06:19.288Z,9.3
2018-11-29T11:08:18.970Z,8.8
2018-11-29T11:10:19.110Z,8.3
2018-11-29T11:12:18.893Z,9.3
2018-11-29T11:14:18.587Z,8.6
2018-11-29T11:16:19.052Z,9.9
2018-11-29T11:18:18.797Z,8.5
2018-11-29T11:20:18.510Z,10
2018-11-29T11:22:19.203Z,10.9
2018-11-29T11:24:18.936Z,8.7
2018-11-29T11:26:19.376Z,9.7
2018-11-29T11:28:19.069Z,9.5
2018-11-29T11:30:18.910Z,8.7
2018-11-29T11:32:18.842Z,8.9
2018-11-29T11:34:18.541Z,11.3
2018-11-29T11:36:18.928Z,9.8
2018-11-29T11:38:18.625Z,8.8
2018-11-29T11:40:18.768Z,9.9
2018-11-29T11:42:18.455Z,9.5
2018-11-29T11:44:19.130Z,9.9
2018-11-29T11:46:19.084Z,8.9
2018-11-29T11:48:18.761Z,10
2018-11-29T11:50:18.470Z,9.9
2018-11-29T11:52:19.146Z,9.7
2018-11-29T11:54:18.822Z,9.1
2018-11-29T11:56:19.291Z,10.9
2018-11-29T11:58:18.967Z,9.6
2018-11-29T12:00:18.695Z,9.6
2018-11-29T12:02:18.540Z,9.7
2018-11-29T12:04:19.311Z,9.7
2018-11-29T12:06:19.364Z,10.6
2018-11-29T12:08:19.101Z,8.9
2018-11-29T12:10:19.400Z,8.6
2018-11-29T12:12:19.175Z,9.6
2018-11-29T12:14:18.906Z,9.4
2018-11-29T12:16:18.615Z,10.3
2018-11-29T12:18:19.421Z,9.4
2018-11-29T12:20:19.156Z,10.6
2018-11-29T12:22:18.914Z,9.8
2018-11-29T12:24:18.674Z,10
2018-11-29T12:26:19.342Z,10.8
2018-11-29T12:28:19.079Z,9.5
2018-11-29T12:30:18.852Z,12
2018-11-29T12:32:18.576Z,11
2018-11-29T12:34:19.319Z,10.2
2018-11-29T12:36:18.502Z,9.8
2018-11-29T12:38:19.264Z,9
2018-11-29T12:40:18.599Z,10.6
2018-11-29T12:42:19.345Z,10.7
2018-11-29T12:44:19.085Z,9.3
2018-11-29T12:46:19.138Z,9
2018-11-29T12:48:18.898Z,10.5
2018-11-29T12:50:18.662Z,10
2018-11-29T12:52:19.405Z,10
2018-11-29T12:54:19.166Z,11.2
2018-11-29T12:56:19.243Z,9.8
2018-11-29T12:58:19.005Z,8.7
2018-11-29T13:00:18.792Z,10.7
2018-11-29T13:02:18.555Z,10.3
2018-11-29T13:04:19.280Z,10.2
2018-11-29T13:06:19.465Z,11.4
2018-11-29T13:08:19.206Z,10.5
2018-11-29T13:10:19.443Z,10
2018-11-29T13:12:19.194Z,10.3
2018-11-29T13:14:19.051Z,9.6
2018-11-29T13:16:18.946Z,10.9
2018-11-29T13:18:18.786Z,9.9
2018-11-29T13:20:18.718Z,9.9
2018-11-29T13:22:19.457Z,10.3
2018-11-29T13:24:19.220Z,9.6
2018-11-29T13:26:18.747Z,8.4
2018-11-29T13:28:19.469Z,10.1
2018-11-29T13:30:19.218Z,11.6
2018-11-29T13:32:18.987Z,10.4
2018-11-29T13:34:18.741Z,8.9
2018-11-29T13:36:19.395Z,9
2018-11-29T13:38:19.276Z,8.2
2018-11-29T13:42:19.260Z,9.8
2018-11-29T13:44:19.007Z,9.2
2018-11-29T13:46:18.727Z,9.9
2018-11-29T13:48:19.479Z,8.7
2018-11-29T13:50:19.234Z,8
2018-11-29T13:52:18.998Z,8.1
2018-11-29T13:54:18.739Z,9
2018-11-29T13:56:18.693Z,8.3
2018-11-29T13:58:19.455Z,7.3
2018-11-29T14:00:19.219Z,8.9
2018-11-29T14:02:18.950Z,9.6
2018-11-29T14:04:18.699Z,9.1
2018-11-29T14:06:19.395Z,8.2
2018-11-29T14:08:19.159Z,9.4
2018-11-29T14:10:19.416Z,8.6
2018-11-29T14:12:19.069Z,9.7
2018-11-29T14:14:18.834Z,10
2018-11-29T14:16:18.868Z,7.8
2018-11-29T14:18:18.696Z,7.8
2018-11-29T14:20:19.469Z,9.6
2018-11-29T14:22:19.214Z,7.7
2018-11-29T14:24:18.946Z,9.9
2018-11-29T14:26:19.040Z,8.8
2018-11-29T14:28:18.818Z,8
2018-11-29T14:30:18.592Z,9.4
2018-11-29T14:32:19.359Z,9.3
2018-11-29T14:34:19.105Z,9
2018-11-29T14:36:19.200Z,8.8
2018-11-29T14:38:18.989Z,8.5
2018-11-29T14:40:19.293Z,8.3
2018-11-29T14:42:19.321Z,7.8
2018-11-29T14:44:19.084Z,8.2
2018-11-29T14:46:18.609Z,8.1
2018-11-29T14:48:19.377Z,7.6
2018-11-29T14:50:19.151Z,8.3
2018-11-29T14:52:18.911Z,8.4
2018-11-29T14:54:18.666Z,7.8
2018-11-29T14:56:19.329Z,9.9
2018-11-29T14:58:19.601Z,10.1
2018-11-29T15:00:18.913Z,8.6
2018-11-29T15:02:18.707Z,8.2
2018-11-29T15:04:19.449Z,8.4
2018-11-29T15:06:19.038Z,8.6
2018-11-29T15:08:18.812Z,8.5
2018-11-29T15:10:19.073Z,7.4
2018-11-29T15:12:18.810Z,8
2018-11-29T15:14:18.603Z,9
2018-11-29T15:16:19.161Z,8.7
2018-11-29T15:18:18.989Z,7.3
2018-11-29T15:20:18.774Z,8.9
2018-11-29T15:22:18.550Z,7.1
2018-11-29T15:24:19.315Z,7.7
2018-11-29T15:26:18.944Z,8.2
2018-11-29T15:28:18.703Z,9.9
2018-11-29T15:30:20.477Z,6.7
2018-11-29T15:32:19.335Z,7.7
2018-11-29T15:34:19.099Z,9.4
2018-11-29T15:36:18.686Z,6.2
2018-11-29T15:38:19.448Z,8.7
2018-11-29T15:40:18.722Z,7.4
2018-11-29T15:42:19.453Z,6.9
2018-11-29T15:44:19.205Z,8.8
2018-11-29T15:46:18.784Z,9
2018-11-29T15:48:18.540Z,8.2
2018-11-29T15:50:19.348Z,8.6
2018-11-29T15:52:19.115Z,7.8
2018-11-29T15:54:18.879Z,7.7
2018-11-29T15:56:18.902Z,9.3
2018-11-29T15:58:18.647Z,7.6
2018-11-29T16:00:19.415Z,8.9
2018-11-29T16:02:19.151Z,9.6
2018-11-29T16:04:18.885Z,7.8
2018-11-29T16:06:18.910Z,9.3
2018-11-29T16:08:18.679Z,8.1
2018-11-29T16:10:18.981Z,8.3
2018-11-29T16:12:18.752Z,8.1
2018-11-29T16:14:18.499Z,7.3
2018-11-29T16:16:19.027Z,8.3
2018-11-29T16:18:18.832Z,8.6
2018-11-29T16:20:18.565Z,8.6
2018-11-29T16:22:19.295Z,8.4
2018-11-29T16:24:19.070Z,9.3
2018-11-29T16:26:18.581Z,9.4
2018-11-29T16:28:19.305Z,8.3
2018-11-29T16:30:19.115Z,9.2
2018-11-29T16:32:19.151Z,8.6
2018-11-29T16:34:18.905Z,8.6
2018-11-29T16:36:19.052Z,8
2018-11-29T16:38:18.782Z,9.5
2018-11-29T16:40:18.996Z,8.8
2018-11-29T16:42:18.751Z,8.8
2018-11-29T16:44:18.503Z,9.2
2018-11-29T16:46:19.096Z,9.5
2018-11-29T16:48:18.841Z,9
2018-11-29T16:50:18.582Z,8.8
2018-11-29T16:52:19.330Z,9.5
2018-11-29T16:54:19.097Z,9
2018-11-29T16:56:18.954Z,8.9
2018-11-29T16:58:18.729Z,8.9
2018-11-29T17:00:18.518Z,8.8
2018-11-29T17:02:19.358Z,9.1
2018-11-29T17:04:19.117Z,10
2018-11-29T17:06:18.577Z,8.6
2018-11-29T17:08:19.322Z,9.4
2018-11-29T17:10:18.583Z,7
2018-11-29T17:12:19.364Z,9.3
2018-11-29T17:14:19.103Z,9.2
2018-11-29T17:16:19.162Z,8.7
2018-11-29T17:18:18.979Z,8.4
2018-11-29T17:20:18.783Z,9.8
2018-11-29T17:22:18.537Z,10
2018-11-29T17:24:19.287Z,9
2018-11-29T17:26:19.454Z,8.5
2018-11-29T17:28:19.208Z,9.9
2018-11-29T17:30:18.948Z,8.8
2018-11-29T17:32:18.683Z,8.2
2018-11-29T17:34:19.433Z,9.3
2018-11-29T17:36:18.578Z,8.9
2018-11-29T17:38:19.359Z,7.6
2018-11-29T17:40:18.553Z,9.2
2018-11-29T17:42:19.293Z,8.7
2018-11-29T17:44:19.033Z,8.7
2018-11-29T17:46:18.763Z,8.4
2018-11-29T17:48:18.497Z,9.3
2018-11-29T17:50:19.243Z,8.8
2018-11-29T17:52:18.989Z,9.2
2018-11-29T17:54:18.748Z,8.9
2018-11-29T17:56:19.229Z,8
2018-11-29T17:58:18.954Z,6.7
2018-11-29T18:00:18.741Z,8.5
2018-11-29T18:02:18.488Z,7.8
2018-11-29T18:04:19.239Z,9
2018-11-29T18:06:18.973Z,7.9
2018-11-29T18:08:18.711Z,8
2018-11-29T18:10:18.969Z,8.5
2018-11-29T18:12:18.537Z,7.9
2018-11-29T18:14:19.291Z,8.4
2018-11-29T18:16:19.375Z,8.4
2018-11-29T18:18:19.199Z,7.1
2018-11-29T18:20:18.954Z,6.4
2018-11-29T18:22:18.670Z,8.9
2018-11-29T18:24:19.399Z,7.1
2018-11-29T18:26:18.981Z,6.8
2018-11-29T18:28:18.710Z,7.4
2018-11-29T18:30:19.460Z,7.5
2018-11-29T18:32:19.205Z,7.4
2018-11-29T18:34:18.951Z,7.3
2018-11-29T18:36:19.464Z,8.7
2018-11-29T18:38:19.219Z,7.9
2018-11-29T18:40:19.453Z,7.3
2018-11-29T18:42:19.204Z,7.9
2018-11-29T18:44:19.012Z,8
2018-11-29T18:46:18.741Z,6.4
2018-11-29T18:48:18.521Z,6.9
2018-11-29T18:50:19.270Z,6.2
2018-11-29T18:52:19.002Z,7.5
2018-11-29T18:54:18.731Z,7.9
2018-11-29T18:56:18.644Z,6.8
2018-11-29T18:58:19.367Z,7.7
2018-11-29T19:00:19.138Z,7
2018-11-29T19:02:18.886Z,6.6
2018-11-29T19:04:18.602Z,6.8
2018-11-29T19:06:19.105Z,6.3
2018-11-29T19:08:18.848Z,6.6
2018-11-29T19:10:19.120Z,7.2
2018-11-29T19:12:18.899Z,6
2018-11-29T19:14:18.666Z,6.1
2018-11-29T19:16:18.698Z,7.4
2018-11-29T19:18:18.553Z,7.1
2018-11-29T19:20:19.333Z,7.1
2018-11-29T19:22:19.087Z,5.4
2018-11-29T19:24:18.848Z,6.1
2018-11-29T19:26:19.195Z,6.5
2018-11-29T19:28:18.938Z,6.4
2018-11-29T19:30:18.748Z,5.8
2018-11-29T19:32:18.517Z,5.9
2018-11-29T19:34:19.250Z,5.5
2018-11-29T19:36:19.351Z,5.8
2018-11-29T19:38:19.102Z,6.4
2018-11-29T19:40:19.367Z,5.2
2018-11-29T19:42:19.098Z,5.3
2018-11-29T19:44:18.843Z,5.2
2018-11-29T19:46:18.986Z,5.5
2018-11-29T19:48:18.720Z,6.4
2018-11-29T19:50:18.526Z,5.9
2018-11-29T19:52:19.269Z,4.7
2018-11-29T19:54:19.040Z,6
2018-11-29T19:56:19.424Z,6.3
2018-11-29T19:58:19.173Z,5.3
2018-11-29T20:00:18.952Z,5
2018-11-29T20:02:18.708Z,5.3
2018-11-29T20:04:19.469Z,5.3
2018-11-29T20:06:18.635Z,5.7
2018-11-29T20:08:19.378Z,6
2018-11-29T20:10:18.590Z,4.9
2018-11-29T20:12:19.344Z,6.1
2018-11-29T20:14:19.077Z,5.4
2018-11-29T20:16:18.601Z,5.5
2018-11-29T20:18:19.448Z,5.9
2018-11-29T20:20:19.231Z,5
2018-11-29T20:22:18.962Z,5.8
2018-11-29T20:24:18.702Z,5.9
2018-11-29T20:26:18.769Z,5.5
2018-11-29T20:28:18.507Z,4.8
2018-11-29T20:30:19.259Z,6.1
2018-11-29T20:32:19.003Z,5.4
2018-11-29T20:34:18.747Z,5.8
2018-11-29T20:36:19.491Z,6.7
2018-11-29T20:38:19.272Z,4.9
2018-11-29T20:40:18.519Z,5.2
2018-11-29T20:42:19.262Z,4.8
2018-11-29T20:44:18.996Z,5.9
2018-11-29T20:46:18.989Z,5.8
2018-11-29T20:48:18.717Z,4.5
2018-11-29T20:50:19.482Z,5.2
2018-11-29T20:52:19.231Z,4.9
2018-11-29T20:54:18.981Z,5.9
2018-11-29T20:56:19.319Z,4.5
2018-11-29T20:58:19.081Z,4.7
2018-11-29T21:00:18.832Z,6.7
2018-11-29T21:02:18.557Z,5.6
2018-11-29T21:04:19.316Z,5.1
2018-11-29T21:06:18.823Z,5.6
2018-11-29T21:08:18.574Z,6.3
2018-11-29T21:10:18.927Z,5.7
2018-11-29T21:12:18.679Z,5.2
2018-11-29T21:14:19.411Z,5.8
2018-11-29T21:16:18.946Z,6.7
2018-11-29T21:18:18.763Z,6.7
2018-11-29T21:20:18.509Z,6
2018-11-29T21:22:19.230Z,5.5
2018-11-29T21:24:18.998Z,6
2018-11-29T21:26:19.113Z,5.3
2018-11-29T21:28:18.862Z,5.9
2018-11-29T21:30:18.612Z,5.3
2018-11-29T21:32:19.348Z,5.5
2018-11-29T21:34:19.082Z,6.4
2018-11-29T21:36:18.596Z,6.3
2018-11-29T21:38:19.336Z,6.6
2018-11-29T21:40:18.564Z,6
2018-11-29T21:42:19.301Z,5.8
2018-11-29T21:44:19.041Z,5.9
2018-11-29T21:46:18.535Z,7.1
2018-11-29T21:48:19.274Z,6.2
2018-11-29T21:50:19.032Z,7.1
2018-11-29T21:52:18.767Z,5.7
2018-11-29T21:54:18.523Z,6.4
2018-11-29T21:56:19.224Z,6.3
2018-11-29T21:58:18.931Z,6.5
2018-11-29T22:00:18.684Z,7.5
2018-11-29T22:02:19.461Z,6.9
2018-11-29T22:04:19.216Z,7.7
2018-11-29T22:06:18.782Z,7.3
2018-11-29T22:08:18.524Z,6.7
2018-11-29T22:10:18.770Z,6.2
2018-11-29T22:12:18.512Z,7.8
2018-11-29T22:14:19.249Z,6.9
2018-11-29T22:16:19.370Z,7.8
2018-11-29T22:18:19.196Z,6.9
2018-11-29T22:20:18.964Z,7.1
2018-11-29T22:22:18.716Z,7.2
2018-11-29T22:24:19.467Z,6.8
2018-11-29T22:26:19.112Z,7.1
2018-11-29T22:28:18.868Z,6.3
2018-11-29T22:30:18.623Z,7.4
2018-11-29T22:32:19.366Z,6.7
2018-11-29T22:34:19.129Z,7.4
2018-11-29T22:36:18.640Z,6.8
2018-11-29T22:38:19.379Z,7.6
2018-11-29T22:40:18.632Z,6.5
2018-11-29T22:42:19.390Z,6.2
2018-11-29T22:44:19.132Z,7.6
2018-11-29T22:46:19.229Z,7
2018-11-29T22:48:18.985Z,5.6
2018-11-29T22:50:18.871Z,8.2
2018-11-29T22:52:18.634Z,7.1
2018-11-29T22:54:19.375Z,7.1
2018-11-29T22:56:18.904Z,6.1
2018-11-29T22:58:18.667Z,7.4
2018-11-29T23:00:19.437Z,6
2018-11-29T23:02:19.158Z,7.6
2018-11-29T23:04:18.931Z,7.7
2018-11-29T23:06:19.168Z,7.2
2018-11-29T23:08:18.908Z,6.9
2018-11-29T23:10:19.146Z,7.1
2018-11-29T23:12:18.673Z,6.6
2018-11-29T23:14:19.409Z,7.2
2018-11-29T23:16:19.005Z,7.3
2018-11-29T23:18:18.812Z,8
2018-11-29T23:20:18.558Z,7.2
2018-11-29T23:22:19.268Z,7.6
2018-11-29T23:24:19.003Z,6.8
2018-11-29T23:26:18.560Z,7.5
2018-11-29T23:28:19.306Z,7.1
2018-11-29T23:30:19.082Z,6.8
2018-11-29T23:32:18.835Z,7.6
2018-11-29T23:34:18.592Z,6.9
2018-11-29T23:36:18.649Z,6.3
2018-11-29T23:38:19.497Z,8.1
2018-11-29T23:40:18.774Z,6.3
2018-11-29T23:42:18.543Z,6.7
2018-11-29T23:44:19.265Z,6.4
2018-11-29T23:46:18.509Z,5.3
2018-11-29T23:48:19.264Z,5.9
2018-11-29T23:50:19.009Z,7.1
2018-11-29T23:52:18.753Z,5.9
2018-11-29T23:54:18.497Z,7.9
2018-11-29T23:56:19.433Z,6.2
2018-11-29T23:58:19.176Z,6
